METAR Data
IDs: Format: Raw Decoded Include TAF

Data at: 0552 UTC 03 Jul 2022

METAR for:KOTH (North Bend/SW Oregon, OR, US)
Text:KOTH 030456Z AUTO 32006KT 10SM OVC022 14/12 A3003 RMK AO2 SLP168 T01390117
Temperature: 13.9°C ( 57°F)
Dewpoint: 11.7°C ( 53°F) [RH = 87%]
Pressure (altimeter):30.03 inches Hg (1017.0 mb) [Sea level pressure: 1016.8 mb]
Winds:from the NW (320 degrees) at 7 MPH (6 knots; 3.1 m/s)
Visibility:10 or more sm (16+ km)
Ceiling:2200 feet AGL
Clouds: overcast cloud deck at 2200 feet AGL
QC Flag:automated observation with no human augmentation
Text:KOTH 030356Z 34003KT 10SM OVC022 14/12 A3003 RMK AO2 SLP167 T01390117
Temperature: 13.9°C ( 57°F)
Dewpoint: 11.7°C ( 53°F) [RH = 87%]
Pressure (altimeter):30.03 inches Hg (1017.0 mb) [Sea level pressure: 1016.7 mb]
Winds:from the NNW (340 degrees) at 3 MPH (3 knots; 1.5 m/s)
Visibility:10 or more sm (16+ km)
Ceiling:2200 feet AGL
Clouds: overcast cloud deck at 2200 feet AGL

METAR for:KAST (Astoria Rgnl, OR, US)
Text:KAST 030455Z AUTO 29007KT 10SM OVC024 14/11 A2998 RMK AO2 SLP151 T01440111
Temperature: 14.4°C ( 58°F)
Dewpoint: 11.1°C ( 52°F) [RH = 81%]
Pressure (altimeter):29.98 inches Hg (1015.3 mb) [Sea level pressure: 1015.1 mb]
Winds:from the WNW (290 degrees) at 8 MPH (7 knots; 3.6 m/s)
Visibility:10 or more sm (16+ km)
Ceiling:2400 feet AGL
Clouds: overcast cloud deck at 2400 feet AGL
QC Flag:automated observation with no human augmentation
Text:KAST 030355Z AUTO 30006KT 10SM OVC023 15/11 A2997 RMK AO2 SLP148 T01500111
Temperature: 15.0°C ( 59°F)
Dewpoint: 11.1°C ( 52°F) [RH = 77%]
Pressure (altimeter):29.97 inches Hg (1015.0 mb) [Sea level pressure: 1014.8 mb]
Winds:from the WNW (300 degrees) at 7 MPH (6 knots; 3.1 m/s)
Visibility:10 or more sm (16+ km)
Ceiling:2300 feet AGL
Clouds: overcast cloud deck at 2300 feet AGL
QC Flag:automated observation with no human augmentation

METAR for:KPDX (Portland Intl Arpt, OR, US)
Text:KPDX 030453Z 31009KT 10SM BKN039 BKN180 18/11 A2994 RMK AO2 SLP137 T01780111
Temperature: 17.8°C ( 64°F)
Dewpoint: 11.1°C ( 52°F) [RH = 65%]
Pressure (altimeter):29.94 inches Hg (1014.0 mb) [Sea level pressure: 1013.7 mb]
Winds:from the NW (310 degrees) at 10 MPH (9 knots; 4.6 m/s)
Visibility:10 or more sm (16+ km)
Ceiling:3900 feet AGL
Clouds: broken clouds at 3900 feet AGL, broken clouds at 18000 feet AGL
Text:KPDX 030353Z 33008KT 10SM SCT031 BKN047 BKN190 19/12 A2993 RMK AO2 SLP134 T01890122
Temperature: 18.9°C ( 66°F)
Dewpoint: 12.2°C ( 54°F) [RH = 65%]
Pressure (altimeter):29.93 inches Hg (1013.6 mb) [Sea level pressure: 1013.4 mb]
Winds:from the NNW (330 degrees) at 9 MPH (8 knots; 4.1 m/s)
Visibility:10 or more sm (16+ km)
Ceiling:4700 feet AGL
Clouds: scattered clouds at 3100 feet AGL, broken clouds at 4700 feet AGL, broken clouds at 19000 feet AGL

METAR for:KDLS (The Dalles Muni, OR, US)
Text:KDLS 030453Z AUTO 31012G20KT 10SM BKN110 20/12 A2981 RMK AO2 SLP093 T02000117
Temperature: 20.0°C ( 68°F)
Dewpoint: 11.7°C ( 53°F) [RH = 59%]
Pressure (altimeter):29.81 inches Hg (1009.6 mb) [Sea level pressure: 1009.3 mb]
Winds:from the NW (310 degrees) at 14 MPH (12 knots; 6.2 m/s) gusting to 23 MPH (20 knots; 10.3 m/s)
Visibility:10 or more sm (16+ km)
Ceiling:11000 feet AGL
Clouds: broken clouds at 11000 feet AGL
QC Flag:automated observation with no human augmentation
Text:KDLS 030353Z AUTO 31014KT 10SM CLR 21/11 A2980 RMK AO2 PK WND 32027/0300 SLP090 T02060111
Temperature: 20.6°C ( 69°F)
Dewpoint: 11.1°C ( 52°F) [RH = 54%]
Pressure (altimeter):29.80 inches Hg (1009.2 mb) [Sea level pressure: 1009.0 mb]
Winds:from the NW (310 degrees) at 16 MPH (14 knots; 7.2 m/s)
Visibility:10 or more sm (16+ km)
Ceiling:at least 12,000 feet AGL
Clouds:sky clear below 12,000 feet AGL
QC Flag:automated observation with no human augmentation

METAR for:KPSC (Pasco/Tri Cities Arp, WA, US)
Text:KPSC 030453Z AUTO 02012KT 10SM -RA BKN110 22/15 A2972 RMK AO2 SLP059 P0001 T02220150
Temperature: 22.2°C ( 72°F)
Dewpoint: 15.0°C ( 59°F) [RH = 64%]
Pressure (altimeter):29.72 inches Hg (1006.5 mb) [Sea level pressure: 1005.9 mb]
Winds:from the NNE (20 degrees) at 14 MPH (12 knots; 6.2 m/s)
Visibility:10 or more sm (16+ km)
Ceiling:11000 feet AGL
Clouds: broken clouds at 11000 feet AGL
Weather:-RA (light rain)
QC Flag:automated observation with no human augmentation
Text:KPSC 030353Z VRB04G14KT 10SM -RA BKN095 OVC110 27/12 A2975 RMK AO2 WSHFT 0314 LTG DSNT N AND NE RAB02 TSB01E16B17E18E22 PRESRR SLP070 P0001 T02720117
Temperature: 27.2°C ( 81°F)
Dewpoint: 11.7°C ( 53°F) [RH = 38%]
Pressure (altimeter):29.75 inches Hg (1007.5 mb) [Sea level pressure: 1007.0 mb]
Winds:variable direction winds at 5 MPH (4 knots; 2.1 m/s) gusting to 16 MPH (14 knots; 7.2 m/s)
Visibility:10 or more sm (16+ km)
Ceiling:9500 feet AGL
Clouds: broken clouds at 9500 feet AGL, overcast cloud deck at 11000 feet AGL
Weather:-RA (light rain)

METAR for:KHRI (Hermiston Muni, OR, US)
Text:KHRI 030453Z AUTO 00000KT 10SM CLR 21/15 A2977 RMK AO2 SLP076 T02110150 TSNO
Temperature: 21.1°C ( 70°F)
Dewpoint: 15.0°C ( 59°F) [RH = 68%]
Pressure (altimeter):29.77 inches Hg (1008.2 mb) [Sea level pressure: 1007.6 mb]
Winds:calm
Visibility:10 or more sm (16+ km)
Ceiling:at least 12,000 feet AGL
Clouds:sky clear below 12,000 feet AGL
QC Flag:automated observation with no human augmentation
Text:KHRI 030353Z AUTO 15006KT 10SM FEW060 21/13 A2972 RMK AO2 WSHFT 0256 RAE40 SLP057 P0000 T02110133 TSNO
Temperature: 21.1°C ( 70°F)
Dewpoint: 13.3°C ( 56°F) [RH = 61%]
Pressure (altimeter):29.72 inches Hg (1006.5 mb) [Sea level pressure: 1005.7 mb]
Winds:from the SSE (150 degrees) at 7 MPH (6 knots; 3.1 m/s)
Visibility:10 or more sm (16+ km)
Ceiling:at least 12,000 feet AGL
Clouds: few clouds at 6000 feet AGL
QC Flag:automated observation with no human augmentation

METAR for:KGEG (Spokane Intl, WA, US)
Text:KGEG 030453Z 13011KT 10SM FEW070 OVC110 24/08 A2976 RMK AO2 SLP060 VIRGA T02390078
Temperature: 23.9°C ( 75°F)
Dewpoint: 7.8°C ( 46°F) [RH = 36%]
Pressure (altimeter):29.76 inches Hg (1007.9 mb) [Sea level pressure: 1006.0 mb]
Winds:from the SE (130 degrees) at 13 MPH (11 knots; 5.7 m/s)
Visibility:10 or more sm (16+ km)
Ceiling:11000 feet AGL
Clouds: few clouds at 7000 feet AGL, overcast cloud deck at 11000 feet AGL
Text:KGEG 030353Z 11003KT 10SM FEW070 BKN110 BKN180 BKN220 27/05 A2975 RMK AO2 SLP055 VIRGA SHRA DSNT NE-SE SW-W T02720050
Temperature: 27.2°C ( 81°F)
Dewpoint: 5.0°C ( 41°F) [RH = 24%]
Pressure (altimeter):29.75 inches Hg (1007.5 mb) [Sea level pressure: 1005.5 mb]
Winds:from the ESE (110 degrees) at 3 MPH (3 knots; 1.5 m/s)
Visibility:10 or more sm (16+ km)
Ceiling:11000 feet AGL
Clouds: few clouds at 7000 feet AGL, broken clouds at 11000 feet AGL, broken clouds at 18000 feet AGL, broken clouds at 22000 feet AGL